Xing Hao Hai — VRPF5 — position and weather

sailwx.info

Track history (hours):
 
Tides and Currents Weather Stations Pressure Air Temp Water Temp Dewpoint Dewpoint Depression Visibility Wind Speed Wind Dir Waves Ship Positions

Xing Hao Hai

Last reported at 2017-Dec-18 06:59 UTC. Time now 2017-Dec-18 07:07 UTC.
Position N 31°48' E 120°56'.

Length 200 m; draft 6.5 m.

Type: Cargo ship. MMSI: 477730800.

Date/timePositionNaut miles runAvg speedWind from/ knotsBaromVisibWave heightAir tempDewpointWater temp
2017-Dec-18 06:59N 31°48' E 120°56'612.0
2017-Dec-18 06:29N 31°46' E 121°02'713.8
2017-Dec-18 06:00N 31°42' E 121°08'714.8
2017-Dec-18 05:30N 31°38' E 121°15'714.2
2017-Dec-18 05:00N 31°33' E 121°21'611.8
2017-Dec-18 04:29N 31°29' E 121°27'4 7.4
2017-Dec-18 04:00N 31°26' E 121°29'5 9.2
2017-Dec-18 03:30N 31°24' E 121°34'2211.1
2017-Dec-18 01:30N 31°09' E 121°53'611.9
2017-Dec-18 01:00N 31°06' E 121°59'612.1
2017-Dec-18 00:30N 31°04' E 122°06'612.4
2017-Dec-18 00:00N 31°03' E 122°13'510.2
2017-Dec-17 23:28N 31°02' E 122°19'510.3
2017-Dec-17 23:00N 31°01' E 122°25'510.7
2017-Dec-17 22:30N 31°00' E 122°31'  
Track history (hours):
 
Tides and Currents Weather Stations Pressure Air Temp Water Temp Dewpoint Dewpoint Depression Visibility Wind Speed Wind Dir Waves Ship Positions

Xing Hao Hai

Last reported at 2017-Dec-18 06:59 UTC. Time now 2017-Dec-18 07:07 UTC.
Position N 31°48' E 120°56'.

Length 200 m; draft 6.5 m.

Type: Cargo ship. MMSI: 477730800.

Date/timePositionNaut miles runAvg speedWind from/ knotsBaromVisibWave heightAir tempDewpointWater temp
2017-Dec-18 06:59N 31°48' E 120°56'612.0
2017-Dec-18 06:29N 31°46' E 121°02'713.8
2017-Dec-18 06:00N 31°42' E 121°08'714.8
2017-Dec-18 05:30N 31°38' E 121°15'714.2
2017-Dec-18 05:00N 31°33' E 121°21'611.8
2017-Dec-18 04:29N 31°29' E 121°27'4 7.4
2017-Dec-18 04:00N 31°26' E 121°29'5 9.2
2017-Dec-18 03:30N 31°24' E 121°34'2211.1
2017-Dec-18 01:30N 31°09' E 121°53'611.9
2017-Dec-18 01:00N 31°06' E 121°59'612.1
2017-Dec-18 00:30N 31°04' E 122°06'612.4
2017-Dec-18 00:00N 31°03' E 122°13'510.2
2017-Dec-17 23:28N 31°02' E 122°19'510.3
2017-Dec-17 23:00N 31°01' E 122°25'510.7
2017-Dec-17 22:30N 31°00' E 122°31'  

Dump ship's entire track history